createdAt,value
2017-09-02T00:01:24.200Z,84.96
2017-09-02T00:03:52.494Z,84.93
2017-09-02T00:06:20.810Z,84.78
2017-09-02T00:08:49.120Z,84.26
2017-09-02T00:11:17.443Z,83.79
2017-09-02T00:13:45.765Z,83.74
2017-09-02T00:16:14.087Z,83.34
2017-09-02T00:18:42.389Z,83.36
2017-09-02T00:21:10.717Z,82.90
2017-09-02T00:23:39.014Z,82.97
2017-09-02T00:26:07.338Z,82.32
2017-09-02T00:28:35.653Z,82.30
2017-09-02T00:31:03.944Z,82.37
2017-09-02T00:33:32.252Z,82.03
2017-09-02T00:36:00.556Z,81.27
2017-09-02T00:38:28.890Z,80.79
2017-09-02T00:40:57.201Z,80.52
2017-09-02T00:43:25.545Z,80.31
2017-09-02T00:45:53.875Z,81.04
2017-09-02T00:48:22.197Z,80.69
2017-09-02T00:50:50.504Z,81.04
2017-09-02T00:53:18.828Z,81.11
2017-09-02T00:55:47.184Z,81.49
2017-09-02T00:58:15.512Z,81.71
2017-09-02T01:00:43.850Z,82.46
2017-09-02T01:03:12.187Z,82.16
2017-09-02T01:05:40.505Z,81.72
2017-09-02T01:08:08.816Z,81.48
2017-09-02T01:10:37.116Z,81.78
2017-09-02T01:13:05.437Z,82.02
2017-09-02T01:15:33.747Z,81.73
2017-09-02T01:18:02.054Z,81.57
2017-09-02T01:20:30.361Z,82.07
2017-09-02T01:22:58.676Z,82.44
2017-09-02T01:25:26.984Z,81.95
2017-09-02T01:27:55.332Z,82.21
2017-09-02T01:30:29.117Z,82.66
2017-09-02T01:32:57.442Z,82.13
2017-09-02T01:35:25.762Z,82.75
2017-09-02T01:37:54.080Z,82.70
2017-09-02T01:40:22.410Z,82.12
2017-09-02T01:42:50.788Z,81.92
2017-09-02T01:45:19.099Z,82.22
2017-09-02T01:47:47.410Z,82.51
2017-09-02T01:50:15.704Z,82.25
2017-09-02T01:52:43.996Z,81.75
2017-09-02T01:55:12.314Z,81.25
2017-09-02T01:57:40.621Z,81.41
2017-09-02T02:00:08.945Z,81.26
2017-09-02T02:02:37.240Z,81.72
2017-09-02T02:05:05.563Z,81.25
2017-09-02T02:07:33.879Z,80.99
2017-09-02T02:10:02.197Z,80.92
2017-09-02T02:12:30.500Z,80.71
2017-09-02T02:14:58.862Z,80.40
2017-09-02T02:17:27.164Z,80.02
2017-09-02T02:19:55.766Z,80.43
2017-09-02T02:22:24.069Z,80.68
2017-09-02T02:24:52.386Z,80.81
2017-09-02T02:27:20.718Z,80.70
2017-09-02T02:29:49.056Z,81.36
2017-09-02T02:32:17.353Z,81.33
2017-09-02T02:34:45.669Z,81.48
2017-09-02T02:37:13.989Z,82.18
2017-09-02T02:39:42.318Z,81.50
2017-09-02T02:42:10.629Z,81.86
2017-09-02T02:44:38.958Z,82.15
2017-09-02T02:47:07.282Z,82.62
2017-09-02T02:49:35.606Z,83.02
2017-09-02T02:52:03.925Z,82.85
2017-09-02T02:54:32.266Z,82.90
2017-09-02T02:57:00.594Z,82.49
2017-09-02T02:59:28.904Z,82.87
2017-09-02T03:01:57.224Z,82.80
2017-09-02T03:04:25.529Z,82.52
2017-09-02T03:06:53.853Z,82.76
2017-09-02T03:09:22.161Z,82.72
2017-09-02T03:11:50.469Z,83.30
2017-09-02T03:14:18.797Z,83.46
2017-09-02T03:16:47.097Z,83.28
2017-09-02T03:19:15.432Z,83.25
2017-09-02T03:21:43.748Z,83.60
2017-09-02T03:24:12.086Z,83.80
2017-09-02T03:26:40.392Z,83.65
2017-09-02T03:29:08.743Z,83.84
2017-09-02T03:31:37.052Z,83.98
2017-09-02T03:34:05.381Z,84.03
2017-09-02T03:36:33.685Z,83.85
2017-09-02T03:39:02.018Z,83.99
2017-09-02T03:41:30.353Z,83.92
2017-09-02T03:43:58.689Z,83.98
2017-09-02T03:46:26.998Z,83.71
2017-09-02T03:48:55.313Z,83.62
2017-09-02T03:51:23.633Z,83.40
2017-09-02T03:53:51.937Z,82.80
2017-09-02T03:56:20.261Z,82.41
2017-09-02T03:58:48.570Z,82.21
2017-09-02T04:01:16.885Z,82.50
2017-09-02T04:03:45.189Z,82.85
2017-09-02T04:06:13.501Z,83.01
2017-09-02T04:08:41.805Z,83.54
2017-09-02T04:11:10.148Z,83.87
2017-09-02T04:13:38.461Z,84.16
2017-09-02T04:16:06.788Z,84.33
2017-09-02T04:18:35.096Z,84.00
2017-09-02T04:21:03.410Z,84.03
2017-09-02T04:23:31.720Z,84.09
2017-09-02T04:26:00.043Z,84.70
2017-09-02T04:28:28.345Z,85.29
2017-09-02T04:30:56.663Z,85.48
2017-09-02T04:33:24.980Z,85.89
2017-09-02T04:35:53.284Z,85.84
2017-09-02T04:38:21.593Z,86.40
2017-09-02T04:40:49.913Z,86.28
2017-09-02T04:43:18.248Z,86.30
2017-09-02T04:45:46.556Z,86.04
2017-09-02T04:48:14.877Z,85.85
2017-09-02T04:50:43.201Z,85.58
2017-09-02T04:53:11.524Z,85.92
2017-09-02T04:55:39.832Z,86.02
2017-09-02T04:58:08.164Z,85.69
2017-09-02T05:00:36.486Z,85.73
2017-09-02T05:03:04.803Z,85.86
2017-09-02T05:05:33.882Z,85.63
2017-09-02T05:08:02.217Z,85.08
2017-09-02T05:10:30.534Z,84.94
2017-09-02T05:12:58.868Z,84.54
2017-09-02T05:15:27.191Z,84.12
2017-09-02T05:17:55.501Z,83.90
2017-09-02T05:20:23.837Z,83.30
2017-09-02T05:22:52.137Z,82.94
2017-09-02T05:25:20.457Z,82.35
2017-09-02T05:27:48.770Z,83.23
2017-09-02T05:30:17.096Z,82.58
2017-09-02T05:32:45.406Z,82.20
2017-09-02T05:35:13.723Z,81.96
2017-09-02T05:37:42.029Z,82.52
2017-09-02T05:40:10.345Z,81.53
2017-09-02T05:42:38.645Z,80.19
2017-09-02T05:45:06.956Z,80.70
2017-09-02T05:47:35.266Z,81.41
2017-09-02T05:50:03.587Z,81.47
2017-09-02T05:52:31.902Z,80.72
2017-09-02T05:55:00.225Z,80.40
2017-09-02T05:57:28.545Z,80.36
2017-09-02T05:59:56.874Z,79.77
2017-09-02T06:02:25.201Z,78.92
2017-09-02T06:04:53.521Z,78.58
2017-09-02T06:07:21.833Z,78.05
2017-09-02T06:09:50.149Z,77.17
2017-09-02T06:12:18.487Z,76.64
2017-09-02T06:14:46.807Z,75.19
2017-09-02T06:17:15.127Z,73.49
2017-09-02T06:19:43.437Z,74.58
2017-09-02T06:22:11.754Z,75.53
2017-09-02T06:24:40.062Z,74.02
2017-09-02T06:27:08.431Z,73.44
2017-09-02T06:29:36.752Z,72.39
2017-09-02T06:32:05.083Z,74.91
2017-09-02T06:34:33.409Z,75.18
2017-09-02T06:37:01.708Z,74.87
2017-09-02T06:39:30.729Z,75.98
2017-09-02T06:41:59.033Z,75.33
2017-09-02T06:44:27.354Z,75.82
2017-09-02T06:46:55.653Z,75.47
2017-09-02T06:49:23.977Z,73.10
2017-09-02T06:51:52.289Z,73.11
2017-09-02T06:54:20.638Z,73.36
2017-09-02T06:56:48.950Z,72.26
2017-09-02T06:59:17.253Z,72.28
2017-09-02T07:01:45.562Z,70.82
2017-09-02T07:04:13.899Z,70.57
2017-09-02T07:06:42.201Z,69.79
2017-09-02T07:09:10.505Z,68.28
2017-09-02T07:11:38.830Z,68.40
2017-09-02T07:14:07.134Z,69.59
2017-09-02T07:16:35.455Z,68.15
2017-09-02T07:19:03.758Z,67.24
2017-09-02T07:21:32.069Z,67.32
2017-09-02T07:24:00.419Z,67.08
2017-09-02T07:26:28.734Z,66.86
2017-09-02T07:28:57.047Z,68.22
2017-09-02T07:31:25.365Z,67.29
2017-09-02T07:33:53.670Z,66.70
2017-09-02T07:36:21.989Z,65.58
2017-09-02T07:38:50.284Z,66.35
2017-09-02T07:41:18.597Z,65.47
2017-09-02T07:43:46.894Z,65.11
2017-09-02T07:46:15.205Z,64.77
2017-09-02T07:48:43.498Z,63.81
2017-09-02T07:51:11.804Z,63.33
2017-09-02T07:53:40.143Z,61.94
2017-09-02T07:56:08.450Z,61.51
2017-09-02T07:58:36.776Z,61.98
2017-09-02T08:01:05.082Z,61.26
2017-09-02T08:03:33.477Z,60.73
2017-09-02T08:06:01.764Z,59.04
2017-09-02T08:08:30.079Z,57.98
2017-09-02T08:10:58.385Z,56.80
2017-09-02T08:13:26.690Z,55.65
2017-09-02T08:15:54.991Z,56.25
2017-09-02T08:18:23.341Z,55.85
2017-09-02T08:20:51.637Z,54.06
2017-09-02T08:23:19.953Z,51.83
2017-09-02T08:25:48.262Z,52.06
2017-09-02T08:28:16.862Z,51.63
2017-09-02T08:30:45.168Z,50.88
2017-09-02T08:33:13.466Z,50.23
2017-09-02T08:35:41.772Z,48.94
2017-09-02T08:38:10.087Z,50.82
2017-09-02T08:40:38.400Z,50.64
2017-09-02T08:43:06.701Z,49.38
2017-09-02T08:45:35.016Z,50.31
2017-09-02T08:48:03.314Z,50.95
2017-09-02T08:50:31.670Z,49.98
2017-09-02T08:52:59.969Z,50.65
2017-09-02T08:55:28.290Z,49.55
2017-09-02T08:57:56.605Z,49.51
2017-09-02T09:00:24.905Z,49.07
2017-09-02T09:02:53.213Z,50.53
2017-09-02T09:05:21.546Z,48.41
2017-09-02T09:07:49.849Z,48.07
2017-09-02T09:10:18.149Z,48.86
2017-09-02T09:12:46.457Z,47.96
2017-09-02T09:15:14.757Z,49.22
2017-09-02T09:17:43.080Z,49.49
2017-09-02T09:20:11.373Z,49.42
2017-09-02T09:22:39.717Z,48.20
2017-09-02T09:25:08.021Z,48.94
2017-09-02T09:27:36.336Z,50.26
2017-09-02T09:30:04.629Z,49.71
2017-09-02T09:32:32.953Z,49.44
2017-09-02T09:35:01.250Z,50.62
2017-09-02T09:37:29.557Z,50.17
2017-09-02T09:39:57.857Z,46.46
2017-09-02T09:42:26.161Z,49.33
2017-09-02T09:44:54.453Z,49.99
2017-09-02T09:47:22.790Z,50.89
2017-09-02T09:49:51.089Z,50.54
2017-09-02T09:52:20.430Z,51.98
2017-09-02T09:54:48.739Z,51.97
2017-09-02T09:57:17.046Z,50.97
2017-09-02T09:59:45.357Z,51.09
2017-09-02T10:02:13.657Z,50.08
2017-09-02T10:04:41.962Z,51.33
2017-09-02T10:07:10.269Z,51.31
2017-09-02T10:09:38.577Z,54.14
2017-09-02T10:12:06.881Z,54.03
2017-09-02T10:14:35.189Z,52.53
2017-09-02T10:17:03.485Z,49.56
2017-09-02T10:19:31.802Z,43.42
2017-09-02T10:22:00.100Z,38.10
2017-09-02T10:24:28.433Z,33.03
2017-09-02T10:26:56.720Z,35.13
2017-09-02T10:29:25.017Z,33.49
2017-09-02T10:31:53.337Z,33.99
2017-09-02T10:34:21.645Z,33.10
2017-09-02T10:36:50.112Z,39.85
2017-09-02T10:39:18.413Z,42.13
2017-09-02T10:41:46.716Z,41.37
2017-09-02T10:44:15.017Z,40.46
2017-09-02T10:46:43.333Z,42.39
2017-09-02T10:49:11.633Z,42.03
2017-09-02T10:51:39.938Z,41.28
2017-09-02T10:54:08.248Z,41.44
2017-09-02T10:56:36.554Z,37.63
2017-09-02T10:59:05.661Z,37.24
2017-09-02T11:01:33.969Z,33.12
2017-09-02T11:04:02.277Z,31.61
2017-09-02T11:06:30.607Z,30.23
2017-09-02T11:08:58.910Z,30.17
2017-09-02T11:11:27.209Z,31.44
2017-09-02T11:13:55.517Z,37.09
2017-09-02T11:16:23.830Z,38.33
2017-09-02T11:18:52.137Z,39.65
2017-09-02T11:21:20.450Z,40.13
2017-09-02T11:23:48.749Z,41.30
2017-09-02T11:26:17.053Z,43.02
2017-09-02T11:28:45.356Z,42.62
2017-09-02T11:31:13.673Z,41.90
2017-09-02T11:33:41.996Z,41.10
2017-09-02T11:36:10.302Z,41.79
2017-09-02T11:38:38.618Z,41.92
2017-09-02T11:41:06.918Z,41.06
2017-09-02T11:43:35.241Z,39.18
2017-09-02T11:46:03.538Z,39.70
2017-09-02T11:48:31.872Z,41.13
2017-09-02T11:51:00.957Z,43.48
2017-09-02T11:53:29.253Z,43.71
2017-09-02T11:55:57.561Z,45.17
2017-09-02T11:58:25.865Z,46.99
2017-09-02T12:00:54.172Z,47.27
2017-09-02T12:03:22.789Z,48.25
2017-09-02T12:05:51.100Z,47.79
2017-09-02T12:08:19.397Z,47.44
2017-09-02T12:10:47.705Z,44.74
2017-09-02T12:13:16.001Z,42.96
2017-09-02T12:15:44.309Z,41.96
2017-09-02T12:18:12.601Z,39.30
2017-09-02T12:20:40.910Z,38.91
2017-09-02T12:23:09.211Z,36.77
2017-09-02T12:25:37.611Z,34.24
2017-09-02T12:28:05.909Z,35.24
2017-09-02T12:30:34.229Z,33.63
2017-09-02T12:33:02.538Z,33.79
2017-09-02T12:35:30.839Z,34.39
2017-09-02T12:37:59.150Z,34.77
2017-09-02T12:40:27.457Z,35.00
2017-09-02T12:42:55.762Z,34.89
2017-09-02T12:45:24.066Z,34.15
2017-09-02T12:47:52.375Z,33.41
2017-09-02T12:50:20.681Z,33.61
2017-09-02T12:52:48.997Z,33.81
2017-09-02T12:55:17.296Z,34.00
2017-09-02T12:57:45.629Z,34.57
2017-09-02T13:00:13.943Z,33.44
2017-09-02T13:02:42.249Z,32.11
2017-09-02T13:05:10.576Z,32.60
2017-09-02T13:07:38.865Z,34.60
2017-09-02T13:10:07.179Z,34.89
2017-09-02T13:12:35.477Z,36.84
2017-09-02T13:15:03.785Z,36.41
2017-09-02T13:17:32.074Z,33.89
2017-09-02T13:20:00.377Z,34.78
2017-09-02T13:22:28.681Z,32.76
2017-09-02T13:24:57.178Z,33.05
2017-09-02T13:27:25.478Z,32.67
2017-09-02T13:29:53.781Z,30.83
2017-09-02T13:32:22.113Z,31.67
2017-09-02T13:34:50.426Z,32.82
2017-09-02T13:37:18.729Z,32.17
2017-09-02T13:39:47.041Z,37.23
2017-09-02T13:42:15.333Z,41.36
2017-09-02T13:44:43.703Z,41.94
2017-09-02T13:47:11.992Z,42.75
2017-09-02T13:49:40.302Z,43.58
2017-09-02T13:52:08.613Z,44.12
2017-09-02T13:54:36.914Z,43.84
2017-09-02T13:57:05.227Z,40.12
2017-09-02T13:59:33.533Z,37.65
2017-09-02T14:02:01.837Z,36.88
2017-09-02T14:04:30.136Z,37.37
2017-09-02T14:06:58.477Z,39.93
2017-09-02T14:09:26.773Z,39.62
2017-09-02T14:11:55.069Z,39.18
2017-09-02T14:14:23.377Z,39.10
2017-09-02T14:16:51.676Z,37.65
2017-09-02T14:19:19.988Z,37.74
2017-09-02T14:21:48.277Z,38.04
2017-09-02T14:24:16.588Z,38.15
2017-09-02T14:26:44.903Z,38.30
2017-09-02T14:29:13.206Z,36.00
2017-09-02T14:31:41.536Z,36.24
2017-09-02T14:34:09.872Z,35.70
2017-09-02T14:36:38.174Z,35.73
2017-09-02T14:39:06.483Z,36.40
2017-09-02T14:41:34.786Z,37.07
2017-09-02T14:44:03.103Z,37.75
2017-09-02T14:46:31.429Z,38.15
2017-09-02T14:48:59.724Z,37.60
2017-09-02T14:51:28.044Z,37.69
2017-09-02T14:53:56.349Z,37.97
2017-09-02T14:56:24.663Z,39.41
2017-09-02T14:58:52.997Z,40.37
2017-09-02T15:01:21.306Z,40.88
2017-09-02T15:03:49.625Z,41.84
2017-09-02T15:06:17.949Z,43.91
2017-09-02T15:08:46.256Z,40.36
2017-09-02T15:11:14.582Z,42.16
2017-09-02T15:13:42.886Z,43.09
2017-09-02T15:16:11.203Z,44.00
2017-09-02T15:18:39.521Z,46.46
2017-09-02T15:21:07.821Z,47.47
2017-09-02T15:23:36.108Z,48.59
2017-09-02T15:26:04.416Z,49.73
2017-09-02T15:28:32.719Z,51.04
2017-09-02T15:31:01.033Z,51.59
2017-09-02T15:33:29.329Z,51.96
2017-09-02T15:35:57.633Z,51.60
2017-09-02T15:38:25.933Z,51.37
2017-09-02T15:40:54.269Z,51.14
2017-09-02T15:43:22.579Z,52.32
2017-09-02T15:45:50.890Z,56.97
2017-09-02T15:48:19.206Z,58.18
2017-09-02T15:50:47.578Z,58.82
2017-09-02T15:53:15.900Z,60.01
2017-09-02T15:55:44.231Z,60.82
2017-09-02T15:58:12.561Z,60.86
2017-09-02T16:00:41.690Z,60.46
2017-09-02T16:03:10.026Z,58.99
2017-09-02T16:05:38.353Z,58.35
2017-09-02T16:08:06.678Z,58.63
2017-09-02T16:10:34.990Z,58.08
2017-09-02T16:13:03.315Z,58.84
2017-09-02T16:15:31.628Z,59.54
2017-09-02T16:17:59.920Z,60.45
2017-09-02T16:20:28.258Z,61.79
2017-09-02T16:22:56.572Z,62.64
2017-09-02T16:25:24.926Z,63.90
2017-09-02T16:27:53.221Z,63.79
2017-09-02T16:30:21.537Z,65.33
2017-09-02T16:32:49.851Z,63.48
2017-09-02T16:35:18.176Z,63.95
2017-09-02T16:37:46.481Z,62.39
2017-09-02T16:40:14.785Z,63.44
2017-09-02T16:42:43.091Z,63.87
2017-09-02T16:45:11.410Z,64.96
2017-09-02T16:47:39.718Z,64.85
2017-09-02T16:50:08.042Z,63.80
2017-09-02T16:52:36.355Z,65.60
2017-09-02T16:55:04.649Z,62.18
2017-09-02T16:57:32.949Z,63.83
2017-09-02T17:00:01.254Z,62.87
2017-09-02T17:02:29.582Z,64.25
2017-09-02T17:04:57.880Z,63.62
2017-09-02T17:07:26.186Z,64.19
2017-09-02T17:09:54.496Z,63.94
2017-09-02T17:12:22.819Z,65.34
2017-09-02T17:14:51.171Z,65.42
2017-09-02T17:17:19.597Z,65.27
2017-09-02T17:19:47.954Z,65.49
2017-09-02T17:22:16.364Z,64.47
2017-09-02T17:24:44.883Z,64.01
2017-09-02T17:27:13.314Z,64.90
2017-09-02T17:29:41.679Z,64.15
2017-09-02T17:32:10.079Z,64.19
2017-09-02T17:34:38.397Z,63.79
2017-09-02T17:37:06.729Z,63.82
2017-09-02T17:39:35.081Z,64.96
2017-09-02T17:42:03.508Z,63.99
2017-09-02T17:44:31.903Z,64.42
2017-09-02T17:47:00.230Z,64.58
2017-09-02T17:49:28.549Z,64.82
2017-09-02T17:51:56.889Z,65.65
2017-09-02T17:54:25.205Z,66.74
2017-09-02T17:56:53.513Z,67.84
2017-09-02T17:59:21.821Z,68.90
2017-09-02T18:01:50.151Z,69.45
2017-09-02T18:04:18.476Z,70.07
2017-09-02T18:06:46.769Z,70.25
2017-09-02T18:09:15.077Z,70.39
2017-09-02T18:11:43.377Z,71.19
2017-09-02T18:14:11.697Z,72.06
2017-09-02T18:16:39.998Z,72.45
2017-09-02T18:19:08.318Z,72.24
2017-09-02T18:21:36.629Z,72.05
2017-09-02T18:24:04.958Z,73.13
2017-09-02T18:26:33.268Z,73.71
2017-09-02T18:29:01.569Z,73.50
2017-09-02T18:31:30.719Z,74.54
2017-09-02T18:33:59.071Z,75.04
2017-09-02T18:36:27.387Z,75.07
2017-09-02T18:38:55.705Z,75.92
2017-09-02T18:41:24.021Z,76.44
2017-09-02T18:43:52.690Z,76.79
2017-09-02T18:46:21.018Z,77.14
2017-09-02T18:48:49.335Z,77.52
2017-09-02T18:51:17.661Z,77.67
2017-09-02T18:53:45.981Z,78.25
2017-09-02T18:56:14.363Z,78.18
2017-09-02T18:58:42.731Z,78.29
2017-09-02T19:01:11.083Z,78.40
2017-09-02T19:03:39.405Z,78.72
2017-09-02T19:06:07.709Z,79.07
2017-09-02T19:08:36.040Z,79.04
2017-09-02T19:11:04.343Z,79.54
2017-09-02T19:13:32.661Z,79.14
2017-09-02T19:16:01.175Z,79.00
2017-09-02T19:18:29.519Z,78.79
2017-09-02T19:20:57.850Z,78.84
2017-09-02T19:23:26.173Z,79.14
2017-09-02T19:25:54.484Z,78.89
2017-09-02T19:28:22.797Z,78.56
2017-09-02T19:30:51.106Z,78.62
2017-09-02T19:33:19.399Z,78.66
2017-09-02T19:35:48.310Z,78.51
2017-09-02T19:38:17.114Z,78.42
2017-09-02T19:40:45.444Z,78.45
2017-09-02T19:43:13.757Z,78.15
2017-09-02T19:45:42.138Z,78.51
2017-09-02T19:48:10.464Z,79.13
2017-09-02T19:50:38.817Z,79.30
2017-09-02T19:53:07.129Z,79.34
2017-09-02T19:55:35.443Z,79.31
2017-09-02T19:58:03.766Z,79.09
2017-09-02T20:00:32.106Z,79.31
2017-09-02T20:03:00.418Z,79.64
2017-09-02T20:05:28.717Z,79.82
2017-09-02T20:07:57.354Z,80.25
2017-09-02T20:10:25.669Z,80.28
2017-09-02T20:12:53.986Z,79.88
2017-09-02T20:15:22.299Z,79.96
2017-09-02T20:17:50.635Z,80.06
2017-09-02T20:20:18.952Z,80.12
2017-09-02T20:22:47.267Z,80.24
2017-09-02T20:25:15.585Z,80.50
2017-09-02T20:27:43.897Z,80.68
2017-09-02T20:30:12.204Z,80.84
2017-09-02T20:32:40.529Z,80.99
2017-09-02T20:35:08.825Z,81.22
2017-09-02T20:37:37.149Z,81.64
2017-09-02T20:40:05.457Z,81.73
2017-09-02T20:42:33.769Z,81.68
2017-09-02T20:45:02.080Z,81.99
2017-09-02T20:47:30.397Z,81.93
2017-09-02T20:49:58.718Z,81.70
2017-09-02T20:52:27.026Z,81.43
2017-09-02T20:54:55.337Z,81.24
2017-09-02T20:57:23.634Z,80.95
2017-09-02T20:59:51.957Z,81.05
2017-09-02T21:02:20.294Z,81.60
2017-09-02T21:04:48.635Z,81.77
2017-09-02T21:07:16.937Z,82.33
2017-09-02T21:09:45.252Z,82.29
2017-09-02T21:12:13.573Z,82.21
2017-09-02T21:14:41.883Z,82.67
2017-09-02T21:17:10.193Z,82.87
2017-09-02T21:19:38.513Z,82.88
2017-09-02T21:24:41.537Z,83.38
2017-09-02T21:27:09.853Z,83.47
2017-09-02T21:29:38.145Z,83.39
2017-09-02T21:32:06.461Z,83.61
2017-09-02T21:34:34.769Z,84.05
2017-09-02T21:37:03.094Z,84.32
2017-09-02T21:39:31.425Z,84.43
2017-09-02T21:41:59.741Z,83.97
2017-09-02T21:44:28.061Z,83.49
2017-09-02T21:46:56.696Z,83.30
2017-09-02T21:49:25.002Z,83.31
2017-09-02T21:51:53.318Z,83.85
2017-09-02T21:54:21.622Z,83.93
2017-09-02T21:56:50.308Z,83.88
2017-09-02T21:59:18.610Z,84.70
2017-09-02T22:01:46.941Z,85.01
2017-09-02T22:04:15.263Z,85.09
2017-09-02T22:06:43.569Z,85.25
2017-09-02T22:09:11.876Z,85.43
2017-09-02T22:11:40.205Z,85.65
2017-09-02T22:14:09.073Z,85.91
2017-09-02T22:16:37.375Z,85.70
2017-09-02T22:19:05.689Z,85.42
2017-09-02T22:21:33.998Z,85.90
2017-09-02T22:24:02.439Z,86.20
2017-09-02T22:26:30.749Z,85.98
2017-09-02T22:28:59.081Z,85.92
2017-09-02T22:31:27.377Z,86.23
2017-09-02T22:33:55.694Z,86.10
2017-09-02T22:36:23.998Z,85.90
2017-09-02T22:38:52.355Z,86.02
2017-09-02T22:41:20.679Z,86.37
2017-09-02T22:43:49.022Z,86.38
2017-09-02T22:46:17.331Z,86.06
2017-09-02T22:48:45.658Z,86.02
2017-09-02T22:51:13.951Z,85.95
2017-09-02T22:53:42.282Z,85.60
2017-09-02T22:56:10.596Z,85.63
2017-09-02T22:58:38.916Z,85.61
2017-09-02T23:01:07.212Z,85.41
2017-09-02T23:03:35.536Z,85.25
2017-09-02T23:06:03.845Z,85.42
2017-09-02T23:08:32.137Z,85.71
2017-09-02T23:11:00.510Z,86.20
2017-09-02T23:13:28.817Z,86.20
2017-09-02T23:15:57.129Z,86.30
2017-09-02T23:18:25.438Z,86.03
2017-09-02T23:20:53.746Z,86.17
2017-09-02T23:23:22.045Z,86.21
2017-09-02T23:25:50.361Z,86.43
2017-09-02T23:28:18.677Z,86.40
2017-09-02T23:30:47.014Z,86.59
2017-09-02T23:33:15.316Z,86.57
2017-09-02T23:35:43.625Z,86.66
2017-09-02T23:38:11.955Z,86.46
2017-09-02T23:40:40.262Z,86.46
2017-09-02T23:43:08.565Z,86.48
2017-09-02T23:45:36.890Z,86.63
2017-09-02T23:48:05.200Z,86.55
2017-09-02T23:50:33.520Z,86.56
2017-09-02T23:53:01.829Z,86.65
2017-09-02T23:55:30.182Z,86.96
2017-09-02T23:57:58.518Z,87.02
